createdAt,value
2022-12-22T00:01:34.006Z,98.90
2022-12-22T00:04:37.789Z,99.00
2022-12-22T00:07:41.575Z,99.00
2022-12-22T00:10:45.237Z,99.10
2022-12-22T00:13:50.187Z,99.00
2022-12-22T00:16:56.065Z,99.00
2022-12-22T00:20:01.779Z,99.20
2022-12-22T00:23:05.544Z,99.20
2022-12-22T00:26:09.834Z,99.20
2022-12-22T00:29:15.409Z,99.20
2022-12-22T00:32:20.006Z,99.30
2022-12-22T00:35:31.884Z,99.10
2022-12-22T00:38:40.900Z,99.20
2022-12-22T00:41:44.934Z,99.30
2022-12-22T00:44:48.645Z,99.20
2022-12-22T00:47:52.990Z,99.20
2022-12-22T00:50:57.026Z,99.20
2022-12-22T00:54:01.500Z,99.20
2022-12-22T00:57:08.592Z,99.10
2022-12-22T01:00:15.363Z,99.10
2022-12-22T01:03:19.147Z,99.10
2022-12-22T01:06:28.053Z,99.20
2022-12-22T01:09:31.770Z,99.30
2022-12-22T01:12:41.726Z,99.20
2022-12-22T01:15:47.240Z,99.20
2022-12-22T01:18:54.660Z,99.40
2022-12-22T01:21:59.313Z,99.40
2022-12-22T01:25:04.077Z,99.30
2022-12-22T01:28:10.762Z,99.40
2022-12-22T01:31:15.077Z,99.50
2022-12-22T01:34:19.693Z,99.40
2022-12-22T01:37:24.951Z,99.40
2022-12-22T01:40:37.695Z,99.40
2022-12-22T01:43:45.566Z,99.50
2022-12-22T01:47:01.728Z,99.50
2022-12-22T01:50:12.009Z,99.40
2022-12-22T01:53:19.975Z,99.40
2022-12-22T01:56:27.205Z,99.40
2022-12-22T01:59:31.831Z,99.50
2022-12-22T02:02:38.241Z,99.40
2022-12-22T02:05:43.111Z,99.40
2022-12-22T02:08:56.946Z,99.30
2022-12-22T02:12:30.419Z,99.30
2022-12-22T02:15:44.342Z,99.30
2022-12-22T02:19:01.870Z,99.40
2022-12-22T02:22:20.123Z,99.40
2022-12-22T02:25:37.487Z,99.20
2022-12-22T02:28:42.580Z,99.30
2022-12-22T02:31:54.064Z,99.40
2022-12-22T02:34:59.120Z,99.30
2022-12-22T02:38:12.721Z,99.30
2022-12-22T02:41:28.874Z,99.40
2022-12-22T02:45:00.667Z,99.60
2022-12-22T02:48:16.101Z,99.60
2022-12-22T02:51:32.418Z,99.70
2022-12-22T02:54:37.608Z,99.80
2022-12-22T02:57:41.561Z,99.70
2022-12-22T03:00:45.532Z,99.70
2022-12-22T03:03:49.785Z,99.80
2022-12-22T03:06:55.044Z,99.60
2022-12-22T03:09:58.730Z,99.60
2022-12-22T03:13:02.825Z,99.70
2022-12-22T03:16:06.741Z,99.50
2022-12-22T03:19:10.846Z,99.50
2022-12-22T03:22:18.017Z,99.60
2022-12-22T03:25:22.112Z,99.70
2022-12-22T03:28:08.544Z,99.70
2022-12-22T03:31:08.093Z,99.70
2022-12-22T03:33:55.183Z,99.70
2022-12-22T03:36:40.871Z,99.70
2022-12-22T03:39:28.877Z,99.90
2022-12-22T03:42:32.950Z,99.70
2022-12-22T03:45:36.744Z,99.90
2022-12-22T03:48:21.943Z,99.70
2022-12-22T03:51:20.875Z,99.40
2022-12-22T03:54:06.825Z,99.40
2022-12-22T03:56:53.193Z,99.40
2022-12-22T03:59:38.583Z,99.40
2022-12-22T04:02:27.710Z,99.40
2022-12-22T04:05:13.126Z,99.30
2022-12-22T04:07:58.706Z,99.40
2022-12-22T04:11:02.552Z,99.30
2022-12-22T04:13:47.972Z,99.30
2022-12-22T04:16:33.485Z,99.50
2022-12-22T04:19:19.239Z,99.20
2022-12-22T04:22:05.288Z,99.40
2022-12-22T04:24:50.555Z,99.50
2022-12-22T04:27:35.927Z,99.40
2022-12-22T04:30:24.080Z,99.30
2022-12-22T04:33:09.528Z,99.20
2022-12-22T04:36:07.341Z,99.30
2022-12-22T04:38:52.858Z,99.20
2022-12-22T04:41:38.172Z,99.20
2022-12-22T04:44:23.648Z,99.40
2022-12-22T04:47:09.177Z,99.40
2022-12-22T04:49:55.704Z,99.20
2022-12-22T04:52:41.131Z,99.20
2022-12-22T04:55:26.672Z,99.10
2022-12-22T04:58:12.282Z,98.90
2022-12-22T05:00:58.303Z,98.90
2022-12-22T05:03:43.746Z,99.00
2022-12-22T05:06:29.076Z,99.00
2022-12-22T05:09:14.673Z,98.90
2022-12-22T05:12:21.295Z,98.80
2022-12-22T05:15:07.216Z,98.70
2022-12-22T05:17:53.000Z,98.60
2022-12-22T05:20:39.631Z,98.60
2022-12-22T05:23:25.366Z,98.30
2022-12-22T05:26:12.130Z,98.30
2022-12-22T05:28:57.733Z,98.40
2022-12-22T05:31:47.168Z,98.30
2022-12-22T05:34:32.904Z,98.30
2022-12-22T05:37:18.576Z,98.30
2022-12-22T05:40:04.948Z,98.40
2022-12-22T05:42:50.265Z,98.30
2022-12-22T05:45:35.682Z,98.10
2022-12-22T05:48:27.378Z,98.30
2022-12-22T05:51:18.360Z,98.00
2022-12-22T05:54:03.895Z,98.00
2022-12-22T05:56:49.235Z,97.90
2022-12-22T05:59:34.557Z,97.90
2022-12-22T06:02:23.067Z,97.90
2022-12-22T06:05:13.232Z,97.80
2022-12-22T06:07:58.831Z,98.00
2022-12-22T06:10:47.110Z,97.90
2022-12-22T06:13:32.500Z,97.90
2022-12-22T06:16:21.976Z,97.70
2022-12-22T06:19:07.351Z,97.80
2022-12-22T06:21:55.478Z,97.80
2022-12-22T06:24:41.056Z,97.90
2022-12-22T06:27:29.448Z,97.80
2022-12-22T06:30:16.507Z,97.90
2022-12-22T06:33:01.778Z,97.80
2022-12-22T06:35:50.899Z,97.90
2022-12-22T06:38:42.763Z,97.70
2022-12-22T06:41:46.987Z,97.80
2022-12-22T06:44:32.094Z,97.90
2022-12-22T06:47:20.992Z,97.90
2022-12-22T06:50:09.596Z,97.70
2022-12-22T06:52:55.311Z,97.80
2022-12-22T06:55:43.577Z,98.00
2022-12-22T06:58:29.313Z,97.90
2022-12-22T07:01:14.754Z,97.90
2022-12-22T07:04:00.482Z,97.70
2022-12-22T07:06:48.087Z,97.70
2022-12-22T07:09:38.721Z,97.80
2022-12-22T07:12:24.999Z,97.70
2022-12-22T07:15:10.635Z,97.60
2022-12-22T07:17:56.168Z,97.70
2022-12-22T07:20:41.847Z,97.70
2022-12-22T07:23:27.678Z,97.70
2022-12-22T07:26:13.944Z,97.70
2022-12-22T07:28:59.695Z,97.60
2022-12-22T07:31:45.350Z,97.70
2022-12-22T07:34:30.823Z,97.70
2022-12-22T07:37:16.654Z,97.70
2022-12-22T07:40:01.880Z,97.80
2022-12-22T07:42:53.532Z,97.80
2022-12-22T07:45:39.295Z,97.90
2022-12-22T07:48:43.063Z,97.80
2022-12-22T07:51:33.072Z,97.90
2022-12-22T07:54:19.197Z,97.90
2022-12-22T07:57:08.043Z,98.00
2022-12-22T07:59:54.205Z,98.10
2022-12-22T08:02:39.974Z,98.10
2022-12-22T08:05:28.360Z,98.20
2022-12-22T08:08:16.584Z,98.20
2022-12-22T08:11:03.116Z,98.30
2022-12-22T08:13:49.880Z,98.40
2022-12-22T08:16:35.509Z,98.30
2022-12-22T08:19:20.655Z,98.40
2022-12-22T08:22:06.380Z,98.50
2022-12-22T08:24:54.835Z,98.50
2022-12-22T08:27:48.034Z,98.30
2022-12-22T08:30:41.236Z,98.40
2022-12-22T08:33:26.630Z,98.40
2022-12-22T08:36:12.482Z,98.30
2022-12-22T08:38:58.972Z,98.40
2022-12-22T08:41:50.265Z,98.40
2022-12-22T08:44:36.993Z,98.50
2022-12-22T08:47:25.711Z,98.50
2022-12-22T08:50:14.458Z,98.50
2022-12-22T08:53:23.492Z,98.60
2022-12-22T08:56:13.269Z,98.60
2022-12-22T08:58:58.595Z,98.70
2022-12-22T09:01:48.295Z,98.80
2022-12-22T09:04:34.723Z,98.90
2022-12-22T09:07:23.627Z,99.00
2022-12-22T09:10:10.400Z,99.00
2022-12-22T09:12:56.093Z,99.00
2022-12-22T09:15:41.279Z,99.10
2022-12-22T09:18:28.862Z,99.00
2022-12-22T09:21:15.889Z,99.10
2022-12-22T09:24:01.585Z,99.10
2022-12-22T09:26:49.913Z,99.20
2022-12-22T09:29:40.224Z,99.30
2022-12-22T09:32:25.640Z,99.40
2022-12-22T09:35:11.603Z,99.50
2022-12-22T09:37:56.957Z,99.50
2022-12-22T09:41:19.172Z,99.60
2022-12-22T09:44:11.411Z,99.60
2022-12-22T09:47:32.300Z,99.70
2022-12-22T09:50:18.104Z,99.70
2022-12-22T09:53:05.973Z,99.70
2022-12-22T09:55:51.893Z,99.60
2022-12-22T09:58:37.891Z,99.60
2022-12-22T10:02:15.445Z,99.50
2022-12-22T10:05:32.563Z,99.50
2022-12-22T10:08:27.501Z,99.50
2022-12-22T10:11:18.794Z,99.50
2022-12-22T10:14:04.089Z,99.40
2022-12-22T10:17:09.568Z,99.40
2022-12-22T10:20:06.935Z,99.40
2022-12-22T10:22:59.226Z,99.40
2022-12-22T10:29:13.288Z,99.10
2022-12-22T10:32:05.313Z,98.90
2022-12-22T10:35:06.752Z,98.90
2022-12-22T10:37:52.303Z,98.70
2022-12-22T10:40:43.940Z,98.30
2022-12-22T10:43:39.097Z,98.40
2022-12-22T10:46:47.073Z,98.30
2022-12-22T10:52:30.804Z,98.10
2022-12-22T10:55:26.849Z,97.70
2022-12-22T10:58:19.410Z,97.60
2022-12-22T11:01:05.656Z,97.40
2022-12-22T11:03:51.414Z,97.00
2022-12-22T11:06:43.725Z,97.20
2022-12-22T11:09:34.290Z,97.90
2022-12-22T11:12:49.984Z,97.40
2022-12-22T11:15:41.280Z,96.40
2022-12-22T11:18:46.043Z,94.90
2022-12-22T11:21:51.025Z,95.40
2022-12-22T11:25:14.010Z,94.00
2022-12-22T11:28:24.340Z,92.10
2022-12-22T11:31:34.874Z,92.00
2022-12-22T11:34:47.994Z,90.50
2022-12-22T11:37:56.576Z,90.80
2022-12-22T11:40:49.082Z,91.30
2022-12-22T11:43:43.246Z,92.20
2022-12-22T11:46:38.471Z,89.90
2022-12-22T11:49:38.912Z,85.30
2022-12-22T11:52:40.278Z,86.00
2022-12-22T11:55:31.404Z,87.00
2022-12-22T11:58:45.304Z,88.60
2022-12-22T12:01:49.419Z,90.00
2022-12-22T12:05:06.871Z,90.90
2022-12-22T12:07:59.882Z,91.60
2022-12-22T12:10:49.722Z,92.30
2022-12-22T12:13:44.639Z,92.70
2022-12-22T12:16:39.060Z,93.30
2022-12-22T12:19:53.565Z,93.30
2022-12-22T12:22:38.714Z,93.70
2022-12-22T12:26:02.554Z,93.90
2022-12-22T12:29:02.266Z,94.30
2022-12-22T12:32:15.320Z,94.70
2022-12-22T12:35:24.397Z,94.90
2022-12-22T12:42:06.873Z,95.50
2022-12-22T12:44:54.220Z,95.60
2022-12-22T12:47:40.045Z,95.80
2022-12-22T12:50:34.809Z,96.00
2022-12-22T12:53:24.314Z,95.70
2022-12-22T12:59:09.217Z,95.80
2022-12-22T13:01:56.896Z,95.80
2022-12-22T13:05:05.398Z,95.70
2022-12-22T13:08:18.179Z,95.70
2022-12-22T13:11:07.033Z,95.80
2022-12-22T13:13:52.451Z,95.50
2022-12-22T13:16:39.878Z,95.20
2022-12-22T13:19:26.859Z,95.10
2022-12-22T13:22:12.324Z,95.30
2022-12-22T13:25:01.137Z,95.10
2022-12-22T13:27:46.617Z,95.20
2022-12-22T13:30:36.136Z,95.10
2022-12-22T13:33:28.112Z,94.90
2022-12-22T13:36:21.316Z,95.00
2022-12-22T13:39:17.054Z,95.20
2022-12-22T13:42:06.567Z,95.10
2022-12-22T13:44:51.963Z,95.00
2022-12-22T13:47:42.181Z,94.50
2022-12-22T13:50:38.909Z,94.60
2022-12-22T13:56:47.137Z,94.80
2022-12-22T13:59:40.783Z,94.80
2022-12-22T14:02:32.592Z,94.50
2022-12-22T14:05:18.868Z,94.40
2022-12-22T14:08:06.388Z,94.60
2022-12-22T14:10:53.361Z,94.60
2022-12-22T14:13:40.151Z,94.60
2022-12-22T14:16:26.707Z,94.30
2022-12-22T14:19:16.404Z,94.40
2022-12-22T14:22:25.434Z,94.60
2022-12-22T14:25:21.777Z,94.70
2022-12-22T14:28:20.493Z,94.80
2022-12-22T14:31:08.203Z,94.70
2022-12-22T14:37:05.266Z,94.90
2022-12-22T14:39:56.167Z,94.80
2022-12-22T14:42:46.275Z,95.00
2022-12-22T14:45:32.080Z,95.10
2022-12-22T14:48:28.708Z,95.10
2022-12-22T14:51:19.745Z,95.20
2022-12-22T14:54:05.496Z,95.30
2022-12-22T14:56:54.145Z,95.40
2022-12-22T14:59:39.755Z,95.60
2022-12-22T15:02:39.923Z,95.60
2022-12-22T15:05:31.323Z,95.50
2022-12-22T15:08:40.676Z,95.60
2022-12-22T15:11:28.697Z,95.60
2022-12-22T15:14:18.660Z,95.40
2022-12-22T15:17:06.433Z,95.20
2022-12-22T15:19:55.082Z,95.30
2022-12-22T15:22:48.780Z,95.70
2022-12-22T15:25:37.454Z,95.80
2022-12-22T15:28:22.715Z,95.80
2022-12-22T15:31:15.054Z,95.70
2022-12-22T15:34:07.721Z,95.80
2022-12-22T15:36:53.107Z,95.80
2022-12-22T15:39:40.552Z,95.80
2022-12-22T15:42:28.416Z,95.80
2022-12-22T15:45:14.591Z,95.90
2022-12-22T15:47:59.951Z,96.00
2022-12-22T15:50:46.616Z,95.90
2022-12-22T15:53:33.053Z,96.10
2022-12-22T15:56:22.741Z,96.20
2022-12-22T15:59:27.410Z,96.30
2022-12-22T16:02:13.636Z,96.20
2022-12-22T16:04:59.536Z,96.20
2022-12-22T16:07:45.326Z,96.20
2022-12-22T16:10:34.042Z,96.30
2022-12-22T16:13:25.497Z,96.50
2022-12-22T16:16:11.785Z,96.40
2022-12-22T16:18:57.084Z,96.30
2022-12-22T16:21:47.962Z,96.40
2022-12-22T16:24:35.411Z,96.60
2022-12-22T16:27:24.869Z,96.60
2022-12-22T16:30:20.619Z,96.60
2022-12-22T16:33:06.285Z,97.00
2022-12-22T16:35:54.575Z,96.80
2022-12-22T16:38:41.433Z,96.90
2022-12-22T16:41:28.109Z,97.40
2022-12-22T16:47:32.222Z,97.00
2022-12-22T16:50:22.152Z,97.20
2022-12-22T16:53:12.076Z,97.30
2022-12-22T16:55:59.847Z,97.30
2022-12-22T16:58:46.163Z,97.40
2022-12-22T17:02:18.424Z,97.50
2022-12-22T17:05:04.671Z,97.50
2022-12-22T17:07:50.609Z,97.70
2022-12-22T17:10:36.146Z,97.80
2022-12-22T17:13:25.166Z,97.60
2022-12-22T17:16:22.397Z,97.70
2022-12-22T17:19:13.115Z,97.70
2022-12-22T17:22:00.195Z,97.80
2022-12-22T17:24:45.863Z,98.00
2022-12-22T17:27:33.598Z,97.90
2022-12-22T17:30:22.239Z,97.90
2022-12-22T17:33:21.045Z,97.90
2022-12-22T17:36:35.869Z,98.00
2022-12-22T17:39:23.001Z,98.00
2022-12-22T17:42:16.586Z,98.20
2022-12-22T17:45:01.829Z,98.30
2022-12-22T17:47:53.372Z,98.30
2022-12-22T17:50:39.744Z,98.40
2022-12-22T17:53:27.880Z,98.50
2022-12-22T17:56:21.391Z,98.70
2022-12-22T17:59:11.833Z,98.80
2022-12-22T18:01:57.359Z,98.90
2022-12-22T18:04:43.249Z,99.00
2022-12-22T18:07:28.729Z,99.10
2022-12-22T18:10:31.626Z,99.20
2022-12-22T18:13:21.130Z,99.40
2022-12-22T18:16:07.470Z,99.50
2022-12-22T18:18:53.161Z,99.40
2022-12-22T18:21:41.984Z,99.40
2022-12-22T18:24:29.674Z,99.60
2022-12-22T18:27:15.567Z,99.50
2022-12-22T18:30:00.926Z,99.50
2022-12-22T18:32:48.313Z,99.70
2022-12-22T18:35:38.604Z,99.80
2022-12-22T18:38:30.277Z,99.80
2022-12-22T18:41:20.842Z,99.90
2022-12-22T18:44:16.913Z,99.90
2022-12-22T18:47:02.612Z,99.90
2022-12-22T18:49:50.952Z,99.90
2022-12-22T18:52:37.045Z,99.90
2022-12-22T18:55:25.128Z,99.90
2022-12-22T18:58:14.982Z,99.90
2022-12-22T19:01:00.380Z,99.90
2022-12-22T19:03:48.575Z,99.90
2022-12-22T19:06:34.355Z,99.90
2022-12-22T19:09:20.048Z,99.90
2022-12-22T19:12:05.922Z,99.90
2022-12-22T19:14:54.892Z,99.90
2022-12-22T19:17:40.447Z,99.90
2022-12-22T19:20:26.188Z,99.90
2022-12-22T19:23:14.762Z,99.90
2022-12-22T19:26:08.571Z,99.90
2022-12-22T19:29:01.381Z,99.90
2022-12-22T19:31:47.064Z,99.90
2022-12-22T19:34:32.669Z,99.90
2022-12-22T19:37:18.785Z,99.90
2022-12-22T19:40:09.087Z,99.90
2022-12-22T19:43:02.238Z,99.90
2022-12-22T19:45:59.977Z,99.90
2022-12-22T19:48:47.533Z,99.90
2022-12-22T19:51:32.916Z,99.90
2022-12-22T19:54:20.938Z,99.90
2022-12-22T19:57:08.585Z,99.90
2022-12-22T19:59:54.471Z,99.90
2022-12-22T20:02:39.839Z,99.90
2022-12-22T20:05:25.204Z,99.90
2022-12-22T20:08:10.555Z,99.90
2022-12-22T20:10:58.694Z,99.90
2022-12-22T20:13:45.751Z,99.90
2022-12-22T20:16:34.235Z,99.90
2022-12-22T20:19:19.507Z,99.90
2022-12-22T20:22:04.984Z,99.90
2022-12-22T20:24:51.477Z,99.90
2022-12-22T20:27:37.170Z,99.90
2022-12-22T20:30:25.815Z,99.90
2022-12-22T20:33:12.159Z,99.90
2022-12-22T20:35:59.935Z,99.90
2022-12-22T20:38:46.243Z,99.90
2022-12-22T20:41:33.600Z,99.90
2022-12-22T20:44:23.083Z,99.90
2022-12-22T20:47:18.668Z,99.90
2022-12-22T20:50:29.116Z,99.90
2022-12-22T20:53:19.070Z,99.90
2022-12-22T20:56:31.131Z,99.90
2022-12-22T20:59:22.540Z,99.90
2022-12-22T21:02:23.650Z,99.90
2022-12-22T21:05:09.460Z,99.90
2022-12-22T21:07:55.128Z,99.90
2022-12-22T21:10:40.311Z,99.90
2022-12-22T21:13:25.630Z,99.90
2022-12-22T21:16:24.047Z,99.90
2022-12-22T21:19:19.597Z,99.90
2022-12-22T21:22:04.881Z,99.90
2022-12-22T21:24:51.984Z,99.90
2022-12-22T21:27:38.904Z,99.90
2022-12-22T21:30:28.510Z,99.90
2022-12-22T21:33:16.490Z,99.90
2022-12-22T21:36:04.699Z,99.90
2022-12-22T21:38:53.665Z,99.90
2022-12-22T21:42:00.412Z,99.90
2022-12-22T21:44:53.339Z,99.90
2022-12-22T21:47:38.809Z,99.90
2022-12-22T21:50:29.223Z,99.90
2022-12-22T21:53:21.516Z,99.90
2022-12-22T21:56:20.600Z,99.90
2022-12-22T21:59:05.924Z,99.90
2022-12-22T22:01:53.394Z,99.90
2022-12-22T22:04:39.390Z,99.90
2022-12-22T22:07:24.735Z,99.90
2022-12-22T22:10:10.860Z,99.90
2022-12-22T22:12:56.743Z,99.90
2022-12-22T22:15:45.276Z,99.90
2022-12-22T22:18:30.782Z,99.90
2022-12-22T22:21:17.484Z,99.90
2022-12-22T22:24:02.641Z,99.90
2022-12-22T22:26:49.310Z,99.90
2022-12-22T22:29:34.626Z,99.90
2022-12-22T22:32:20.204Z,99.90
2022-12-22T22:35:05.938Z,99.90
2022-12-22T22:37:52.533Z,99.90
2022-12-22T22:40:38.225Z,99.90
2022-12-22T22:43:23.735Z,99.90
2022-12-22T22:46:15.461Z,99.90
2022-12-22T22:49:01.416Z,99.90
2022-12-22T22:51:49.918Z,99.90
2022-12-22T22:54:36.950Z,99.90
2022-12-22T22:57:22.629Z,99.90
2022-12-22T23:00:11.884Z,99.90
2022-12-22T23:02:58.134Z,99.90
2022-12-22T23:05:45.852Z,99.90
2022-12-22T23:08:33.313Z,99.90
2022-12-22T23:11:20.545Z,99.90
2022-12-22T23:14:06.066Z,99.90
2022-12-22T23:16:54.594Z,99.90
2022-12-22T23:19:39.991Z,99.90
2022-12-22T23:22:25.413Z,99.90
2022-12-22T23:25:13.271Z,99.90
2022-12-22T23:27:58.641Z,99.90
2022-12-22T23:30:45.465Z,99.90
2022-12-22T23:33:31.928Z,99.90
2022-12-22T23:36:17.363Z,99.90
2022-12-22T23:39:03.633Z,99.90
2022-12-22T23:41:48.932Z,99.90
2022-12-22T23:44:34.158Z,99.90
2022-12-22T23:47:22.704Z,99.90
2022-12-22T23:50:11.490Z,99.90
2022-12-22T23:52:56.826Z,99.90
2022-12-22T23:55:47.253Z,99.90
2022-12-22T23:58:32.662Z,99.90
